createdAt,value
2022-08-16T00:00:22.230Z,21.50
2022-08-16T00:02:51.886Z,21.50
2022-08-16T00:05:19.556Z,21.60
2022-08-16T00:07:47.020Z,21.70
2022-08-16T00:10:20.778Z,21.80
2022-08-16T00:12:48.398Z,21.80
2022-08-16T00:15:24.651Z,21.80
2022-08-16T00:18:12.891Z,21.80
2022-08-16T00:20:44.311Z,21.70
2022-08-16T00:23:11.301Z,21.70
2022-08-16T00:26:34.885Z,21.70
2022-08-16T00:28:28.632Z,21.70
2022-08-16T00:30:59.248Z,21.60
2022-08-16T00:33:28.763Z,21.60
2022-08-16T00:35:57.928Z,21.50
2022-08-16T00:38:40.670Z,21.60
2022-08-16T00:41:11.373Z,21.60
2022-08-16T00:43:42.901Z,21.60
2022-08-16T00:46:34.365Z,21.50
2022-08-16T00:49:05.841Z,21.40
2022-08-16T00:51:32.767Z,21.30
2022-08-16T00:54:00.935Z,21.40
2022-08-16T00:56:57.725Z,21.40
2022-08-16T00:59:23.797Z,21.30
2022-08-16T01:01:52.060Z,21.20
2022-08-16T01:04:29.325Z,21.20
2022-08-16T01:07:01.161Z,21.10
2022-08-16T01:09:34.189Z,21.10
2022-08-16T01:12:04.140Z,21.00
2022-08-16T01:14:43.592Z,21.00
2022-08-16T01:17:14.043Z,21.00
2022-08-16T01:19:46.048Z,21.00
2022-08-16T01:22:47.390Z,21.10
2022-08-16T01:25:22.377Z,21.30
2022-08-16T01:28:02.852Z,21.40
2022-08-16T01:30:39.825Z,21.30
2022-08-16T01:33:19.250Z,21.20
2022-08-16T01:35:56.152Z,21.10
2022-08-16T01:38:39.362Z,21.30
2022-08-16T01:41:10.337Z,21.20
2022-08-16T01:43:41.541Z,21.20
2022-08-16T01:46:38.492Z,21.00
2022-08-16T01:49:13.255Z,21.00
2022-08-16T01:51:43.660Z,21.10
2022-08-16T01:54:13.137Z,21.10
2022-08-16T01:56:40.903Z,21.00
2022-08-16T01:59:15.910Z,20.80
2022-08-16T02:01:52.596Z,20.80
2022-08-16T02:04:48.134Z,20.80
2022-08-16T02:07:18.269Z,20.80
2022-08-16T02:09:57.066Z,20.70
2022-08-16T02:12:51.943Z,20.50
2022-08-16T02:15:25.511Z,20.40
2022-08-16T02:17:57.789Z,20.30
2022-08-16T02:20:28.035Z,20.30
2022-08-16T02:22:59.558Z,20.20
2022-08-16T02:25:52.251Z,20.20
2022-08-16T02:28:17.191Z,20.20
2022-08-16T02:30:50.067Z,20.20
2022-08-16T02:33:17.933Z,20.10
2022-08-16T02:35:54.216Z,20.10
2022-08-16T02:38:26.402Z,20.10
2022-08-16T02:40:54.440Z,20.10
2022-08-16T02:43:27.382Z,20.00
2022-08-16T02:45:58.314Z,20.00
2022-08-16T02:48:29.329Z,20.00
2022-08-16T02:51:10.213Z,19.80
2022-08-16T02:53:43.008Z,19.70
2022-08-16T02:56:14.572Z,20.00
2022-08-16T02:58:44.201Z,20.00
2022-08-16T03:01:24.329Z,20.00
2022-08-16T03:04:29.869Z,19.90
2022-08-16T03:06:46.864Z,19.90
2022-08-16T03:09:16.332Z,19.90
2022-08-16T03:11:44.635Z,20.00
2022-08-16T03:14:12.191Z,20.00
2022-08-16T03:16:42.242Z,20.00
2022-08-16T03:19:26.514Z,20.00
2022-08-16T03:22:28.299Z,19.70
2022-08-16T03:24:58.722Z,19.60
2022-08-16T03:27:30.543Z,19.60
2022-08-16T03:29:59.525Z,19.80
2022-08-16T03:32:27.792Z,19.90
2022-08-16T03:34:54.858Z,20.10
2022-08-16T03:37:21.976Z,20.10
2022-08-16T03:39:49.072Z,20.10
2022-08-16T03:42:23.826Z,20.00
2022-08-16T03:44:50.933Z,20.10
2022-08-16T03:47:19.723Z,20.10
2022-08-16T03:49:51.736Z,20.20
2022-08-16T03:52:20.535Z,20.10
2022-08-16T03:54:57.651Z,20.00
2022-08-16T03:57:31.788Z,19.80
2022-08-16T04:00:20.486Z,19.80
2022-08-16T04:03:06.982Z,19.70
2022-08-16T04:05:36.628Z,19.80
2022-08-16T04:08:23.071Z,19.80
2022-08-16T04:10:53.493Z,19.70
2022-08-16T04:14:01.250Z,19.70
2022-08-16T04:16:09.503Z,19.80
2022-08-16T04:19:02.400Z,19.70
2022-08-16T04:21:47.142Z,19.80
2022-08-16T04:24:14.684Z,19.70
2022-08-16T04:26:45.909Z,19.60
2022-08-16T04:29:23.726Z,19.50
2022-08-16T04:31:55.683Z,19.40
2022-08-16T04:34:28.765Z,19.40
2022-08-16T04:36:58.883Z,19.40
2022-08-16T04:39:46.242Z,19.40
2022-08-16T04:42:15.756Z,19.40
2022-08-16T04:44:53.529Z,19.30
2022-08-16T04:47:33.015Z,19.30
2022-08-16T04:50:01.513Z,19.20
2022-08-16T04:52:33.186Z,19.20
2022-08-16T04:55:01.604Z,19.30
2022-08-16T04:57:30.458Z,19.40
2022-08-16T04:59:57.391Z,19.40
2022-08-16T05:02:41.504Z,19.50
2022-08-16T05:05:17.763Z,19.50
2022-08-16T05:07:58.370Z,19.50
2022-08-16T05:10:29.619Z,19.50
2022-08-16T05:13:01.155Z,19.50
2022-08-16T05:15:30.288Z,19.50
2022-08-16T05:18:03.530Z,19.60
2022-08-16T05:20:39.607Z,19.60
2022-08-16T05:23:17.806Z,19.60
2022-08-16T05:25:48.274Z,19.50
2022-08-16T05:28:17.709Z,19.50
2022-08-16T05:30:45.895Z,19.60
2022-08-16T05:33:18.329Z,19.50
2022-08-16T05:35:54.922Z,19.60
2022-08-16T05:38:32.585Z,19.70
2022-08-16T05:41:06.928Z,19.80
2022-08-16T05:43:43.180Z,19.90
2022-08-16T05:46:28.542Z,19.90
2022-08-16T05:49:08.592Z,20.00
2022-08-16T05:51:39.031Z,20.00
2022-08-16T05:54:11.523Z,20.20
2022-08-16T05:56:40.578Z,20.20
2022-08-16T05:59:10.144Z,20.30
2022-08-16T06:01:39.248Z,20.40
2022-08-16T06:04:13.031Z,20.60
2022-08-16T06:06:56.181Z,20.90
2022-08-16T06:09:25.884Z,21.00
2022-08-16T06:12:26.246Z,21.20
2022-08-16T06:14:59.881Z,21.30
2022-08-16T06:17:40.998Z,21.30
2022-08-16T06:20:18.542Z,21.30
2022-08-16T06:22:58.482Z,21.30
2022-08-16T06:25:35.905Z,21.40
2022-08-16T06:28:09.812Z,21.50
2022-08-16T06:30:43.433Z,21.60
2022-08-16T06:33:12.770Z,21.50
2022-08-16T06:35:40.337Z,21.80
2022-08-16T06:38:32.563Z,23.00
2022-08-16T06:40:56.927Z,24.80
2022-08-16T06:43:27.359Z,26.70
2022-08-16T06:45:55.216Z,28.60
2022-08-16T06:48:33.010Z,29.40
2022-08-16T06:51:05.782Z,29.70
2022-08-16T06:53:36.512Z,30.40
2022-08-16T06:56:14.450Z,30.30
2022-08-16T06:58:52.502Z,29.60
2022-08-16T07:01:42.979Z,28.80
2022-08-16T07:04:11.823Z,28.10
2022-08-16T07:06:43.211Z,27.30
2022-08-16T07:09:11.954Z,26.20
2022-08-16T07:11:46.067Z,26.30
2022-08-16T07:14:26.418Z,26.30
2022-08-16T07:16:58.007Z,26.20
2022-08-16T07:20:01.435Z,26.10
2022-08-16T07:22:37.720Z,25.90
2022-08-16T07:25:02.285Z,26.30
2022-08-16T07:27:29.293Z,26.40
2022-08-16T07:30:00.516Z,26.70
2022-08-16T07:32:29.413Z,26.90
2022-08-16T07:34:56.665Z,26.40
2022-08-16T07:37:23.771Z,26.60
2022-08-16T07:39:52.558Z,26.90
2022-08-16T07:42:34.693Z,27.80
2022-08-16T07:45:09.388Z,27.70
2022-08-16T07:47:37.501Z,27.70
2022-08-16T07:50:05.423Z,28.90
2022-08-16T07:52:34.165Z,30.60
2022-08-16T07:55:01.232Z,31.70
2022-08-16T07:57:28.256Z,32.10
2022-08-16T07:59:57.190Z,32.80
2022-08-16T08:02:27.353Z,33.40
2022-08-16T08:04:55.961Z,32.10
2022-08-16T08:07:27.651Z,31.80
2022-08-16T08:09:56.717Z,32.60
2022-08-16T08:12:32.416Z,31.40
2022-08-16T08:15:05.961Z,30.10
2022-08-16T08:17:43.154Z,29.40
2022-08-16T08:20:23.839Z,28.40
2022-08-16T08:22:59.939Z,28.70
2022-08-16T08:25:53.506Z,29.30
2022-08-16T08:28:17.175Z,29.70
2022-08-16T08:30:52.199Z,30.30
2022-08-16T08:33:34.279Z,31.50
2022-08-16T08:36:03.248Z,32.70
2022-08-16T08:38:44.164Z,33.70
2022-08-16T08:41:18.340Z,34.40
2022-08-16T08:43:47.378Z,33.60
2022-08-16T08:46:21.515Z,32.60
2022-08-16T08:48:59.424Z,32.40
2022-08-16T08:51:27.558Z,32.50
2022-08-16T08:53:59.062Z,31.90
2022-08-16T08:56:26.631Z,31.40
2022-08-16T08:58:58.281Z,31.40
2022-08-16T09:01:36.474Z,31.20
2022-08-16T09:04:06.397Z,30.90
2022-08-16T09:06:34.684Z,30.90
2022-08-16T09:09:03.755Z,30.60
2022-08-16T09:11:38.892Z,31.40
2022-08-16T09:14:09.205Z,32.40
2022-08-16T09:17:02.417Z,32.20
2022-08-16T09:19:34.258Z,32.20
2022-08-16T09:22:01.826Z,32.80
2022-08-16T09:24:48.813Z,34.20
2022-08-16T09:27:16.071Z,35.90
2022-08-16T09:29:45.849Z,36.50
2022-08-16T09:32:28.645Z,36.40
2022-08-16T09:34:59.475Z,36.20
2022-08-16T09:37:29.338Z,37.30
2022-08-16T09:39:59.754Z,38.50
2022-08-16T09:42:30.657Z,37.60
2022-08-16T09:45:18.538Z,36.10
2022-08-16T09:47:56.575Z,34.90
2022-08-16T09:50:33.221Z,34.40
2022-08-16T09:53:15.422Z,32.80
2022-08-16T09:55:49.132Z,32.90
2022-08-16T09:58:37.821Z,31.70
2022-08-16T10:01:06.444Z,30.90
2022-08-16T10:03:35.887Z,30.10
2022-08-16T10:06:02.954Z,29.40
2022-08-16T10:08:29.840Z,29.60
2022-08-16T10:11:15.628Z,29.10
2022-08-16T10:13:51.373Z,29.10
2022-08-16T10:16:21.870Z,29.10
2022-08-16T10:19:01.732Z,29.70
2022-08-16T10:21:33.787Z,30.20
2022-08-16T10:24:02.229Z,30.40
2022-08-16T10:27:19.136Z,30.80
2022-08-16T10:29:20.048Z,31.30
2022-08-16T10:31:53.811Z,31.00
2022-08-16T10:34:30.875Z,30.80
2022-08-16T10:37:00.566Z,31.10
2022-08-16T10:39:40.818Z,30.70
2022-08-16T10:42:09.705Z,29.70
2022-08-16T10:44:36.883Z,29.20
2022-08-16T10:47:04.728Z,28.90
2022-08-16T10:49:32.087Z,28.50
2022-08-16T10:52:01.583Z,28.60
2022-08-16T10:54:31.048Z,28.80
2022-08-16T10:57:03.997Z,28.70
2022-08-16T10:59:43.969Z,28.80
2022-08-16T11:02:57.909Z,28.80
2022-08-16T11:05:09.057Z,28.90
2022-08-16T11:07:53.264Z,29.50
2022-08-16T11:19:05.307Z,32.00
2022-08-16T11:22:23.158Z,33.10
2022-08-16T11:24:42.545Z,34.80
2022-08-16T11:27:23.481Z,35.00
2022-08-16T11:29:53.518Z,33.60
2022-08-16T11:32:31.352Z,33.00
2022-08-16T11:35:13.997Z,33.90
2022-08-16T11:38:23.505Z,34.60
2022-08-16T11:40:57.344Z,35.40
2022-08-16T11:43:28.376Z,35.50
2022-08-16T11:45:58.174Z,34.90
2022-08-16T11:48:30.855Z,36.30
2022-08-16T11:50:57.780Z,37.40
2022-08-16T11:53:25.167Z,36.00
2022-08-16T11:55:55.053Z,35.40
2022-08-16T11:58:24.592Z,35.60
2022-08-16T12:00:53.335Z,35.60
2022-08-16T12:03:34.467Z,35.50
2022-08-16T12:06:30.296Z,35.00
2022-08-16T12:09:01.093Z,34.60
2022-08-16T12:11:31.628Z,35.60
2022-08-16T12:14:02.028Z,36.40
2022-08-16T12:16:34.305Z,35.00
2022-08-16T12:19:06.707Z,34.70
2022-08-16T12:21:58.803Z,35.00
2022-08-16T12:24:27.464Z,34.60
2022-08-16T12:26:55.265Z,34.90
2022-08-16T12:29:22.270Z,35.10
2022-08-16T12:32:00.512Z,35.30
2022-08-16T12:34:39.752Z,35.50
2022-08-16T12:37:18.601Z,35.10
2022-08-16T12:39:47.839Z,35.00
2022-08-16T12:42:20.568Z,35.30
2022-08-16T12:44:49.513Z,36.00
2022-08-16T12:47:37.267Z,35.00
2022-08-16T12:50:07.640Z,34.30
2022-08-16T12:52:44.428Z,34.20
2022-08-16T12:55:20.604Z,34.30
2022-08-16T12:57:58.508Z,33.50
2022-08-16T13:00:33.613Z,33.60
2022-08-16T13:03:02.302Z,33.10
2022-08-16T13:08:03.518Z,33.40
2022-08-16T13:10:37.299Z,34.80
2022-08-16T13:13:06.640Z,36.30
2022-08-16T13:15:55.594Z,36.70
2022-08-16T13:18:33.697Z,37.30
2022-08-16T13:21:04.867Z,35.90
2022-08-16T13:23:32.029Z,35.80
2022-08-16T13:25:59.242Z,34.30
2022-08-16T13:28:26.471Z,33.40
2022-08-16T13:30:55.960Z,32.90
2022-08-16T13:33:29.790Z,32.60
2022-08-16T13:36:00.251Z,32.10
2022-08-16T13:38:31.506Z,32.40
2022-08-16T13:41:08.328Z,32.60
2022-08-16T13:43:37.917Z,32.30
2022-08-16T13:46:06.539Z,31.80
2022-08-16T13:48:42.815Z,31.70
2022-08-16T13:51:18.201Z,31.50
2022-08-16T13:53:58.327Z,31.40
2022-08-16T13:56:37.566Z,31.40
2022-08-16T13:59:19.941Z,31.20
2022-08-16T14:01:59.786Z,31.90
2022-08-16T14:04:33.996Z,31.70
2022-08-16T14:07:05.369Z,31.50
2022-08-16T14:09:35.202Z,31.70
2022-08-16T14:12:17.669Z,31.90
2022-08-16T14:14:45.497Z,31.80
2022-08-16T14:17:14.239Z,32.10
2022-08-16T14:19:44.872Z,31.50
2022-08-16T14:22:31.101Z,31.70
2022-08-16T14:24:59.294Z,31.80
2022-08-16T14:27:28.139Z,31.90
2022-08-16T14:29:56.552Z,32.30
2022-08-16T14:32:34.018Z,32.30
2022-08-16T14:35:11.931Z,32.00
2022-08-16T14:37:39.720Z,31.90
2022-08-16T14:40:14.022Z,31.60
2022-08-16T14:42:44.193Z,31.40
2022-08-16T14:45:14.000Z,31.40
2022-08-16T14:47:41.209Z,31.40
2022-08-16T14:50:13.564Z,31.20
2022-08-16T14:52:56.578Z,30.70
2022-08-16T14:55:36.427Z,31.00
2022-08-16T14:58:05.342Z,31.20
2022-08-16T15:00:36.536Z,31.30
2022-08-16T15:03:09.745Z,31.60
2022-08-16T15:05:38.166Z,32.00
2022-08-16T15:08:05.117Z,32.20
2022-08-16T15:10:32.653Z,32.30
2022-08-16T15:13:01.019Z,32.30
2022-08-16T15:15:30.175Z,32.10
2022-08-16T15:17:57.668Z,31.90
2022-08-16T15:20:29.533Z,31.30
2022-08-16T15:22:59.258Z,31.10
2022-08-16T15:25:30.807Z,31.40
2022-08-16T15:28:02.209Z,32.00
2022-08-16T15:30:59.939Z,32.00
2022-08-16T15:33:20.359Z,31.90
2022-08-16T15:35:49.995Z,32.20
2022-08-16T15:38:54.717Z,32.10
2022-08-16T15:41:04.060Z,32.00
2022-08-16T15:43:39.347Z,31.90
2022-08-16T15:46:34.525Z,32.00
2022-08-16T15:49:14.729Z,31.80
2022-08-16T15:51:44.835Z,31.30
2022-08-16T15:54:21.191Z,31.10
2022-08-16T15:57:09.650Z,31.10
2022-08-16T15:59:49.167Z,31.20
2022-08-16T16:02:29.448Z,31.40
2022-08-16T16:05:00.725Z,31.50
2022-08-16T16:07:30.233Z,31.50
2022-08-16T16:09:59.255Z,31.10
2022-08-16T16:12:53.970Z,30.70
2022-08-16T16:15:18.354Z,30.40
2022-08-16T16:17:46.860Z,30.00
2022-08-16T16:20:19.591Z,30.00
2022-08-16T16:22:49.226Z,30.10
2022-08-16T16:25:17.744Z,30.30
2022-08-16T16:27:45.659Z,30.60
2022-08-16T16:30:42.945Z,30.50
2022-08-16T16:33:01.610Z,30.70
2022-08-16T16:35:32.547Z,31.00
2022-08-16T16:38:01.764Z,31.20
2022-08-16T16:40:38.937Z,31.40
2022-08-16T16:43:15.094Z,31.70
2022-08-16T16:45:43.894Z,31.80
2022-08-16T16:48:12.394Z,31.70
2022-08-16T16:50:44.553Z,31.10
2022-08-16T16:53:17.459Z,30.20
2022-08-16T16:55:52.205Z,29.60
2022-08-16T16:58:38.941Z,29.40
2022-08-16T17:01:08.161Z,29.00
2022-08-16T17:03:35.780Z,28.90
2022-08-16T17:06:08.740Z,28.60
2022-08-16T17:08:40.725Z,28.60
2022-08-16T17:11:12.285Z,28.60
2022-08-16T17:13:40.013Z,28.30
2022-08-16T17:16:09.381Z,28.10
2022-08-16T17:19:15.610Z,28.00
2022-08-16T17:21:34.362Z,28.00
2022-08-16T17:24:18.058Z,27.80
2022-08-16T17:26:49.117Z,27.80
2022-08-16T17:29:16.113Z,27.60
2022-08-16T17:31:43.895Z,27.60
2022-08-16T17:34:29.390Z,27.50
2022-08-16T17:37:05.183Z,27.50
2022-08-16T17:39:59.609Z,27.40
2022-08-16T17:42:24.427Z,27.40
2022-08-16T17:44:52.141Z,27.30
2022-08-16T17:47:19.086Z,27.30
2022-08-16T17:49:46.129Z,27.20
2022-08-16T17:52:13.248Z,27.20
2022-08-16T17:54:40.276Z,27.20
2022-08-16T17:57:07.355Z,27.10
2022-08-16T17:59:36.990Z,26.90
2022-08-16T18:02:42.166Z,26.70
2022-08-16T18:04:55.891Z,26.70
2022-08-16T18:07:23.409Z,26.70
2022-08-16T18:09:52.256Z,26.60
2022-08-16T18:12:55.058Z,26.50
2022-08-16T18:15:11.500Z,26.50
2022-08-16T18:17:38.755Z,26.40
2022-08-16T18:20:33.523Z,26.30
2022-08-16T18:23:10.825Z,26.20
2022-08-16T18:25:48.802Z,26.10
2022-08-16T18:28:16.779Z,26.00
2022-08-16T18:30:46.796Z,26.00
2022-08-16T18:33:19.416Z,26.00
2022-08-16T18:35:46.596Z,26.00
2022-08-16T18:38:13.630Z,25.90
2022-08-16T18:40:40.720Z,25.80
2022-08-16T18:43:17.178Z,25.70
2022-08-16T18:45:47.692Z,25.70
2022-08-16T18:48:14.485Z,25.60
2022-08-16T18:51:03.099Z,25.70
2022-08-16T18:53:32.818Z,25.80
2022-08-16T18:56:01.505Z,25.70
2022-08-16T18:58:30.493Z,25.60
2022-08-16T19:00:57.972Z,25.60
2022-08-16T19:03:29.217Z,25.60
2022-08-16T19:05:59.598Z,25.40
2022-08-16T19:08:26.467Z,25.20
2022-08-16T19:10:53.878Z,25.10
2022-08-16T19:13:24.309Z,25.10
2022-08-16T19:15:53.777Z,25.30
2022-08-16T19:18:21.845Z,25.30
2022-08-16T19:20:49.065Z,25.30
2022-08-16T19:23:24.116Z,25.00
2022-08-16T19:26:00.081Z,25.00
2022-08-16T19:28:49.281Z,25.10
2022-08-16T19:31:22.812Z,25.10
2022-08-16T19:33:55.273Z,25.10
2022-08-16T19:36:35.476Z,25.00
2022-08-16T19:39:11.578Z,25.10
2022-08-16T19:41:41.374Z,25.10
2022-08-16T19:44:08.950Z,25.00
2022-08-16T19:46:37.850Z,24.90
2022-08-16T19:49:04.908Z,24.90
2022-08-16T19:51:32.212Z,25.00
2022-08-16T19:53:59.398Z,25.00
2022-08-16T19:56:26.557Z,24.90
2022-08-16T20:01:42.981Z,24.90
2022-08-16T20:04:14.307Z,24.90
2022-08-16T20:06:41.937Z,24.70
2022-08-16T20:09:10.525Z,24.70
2022-08-16T20:11:42.048Z,24.70
2022-08-16T20:14:08.937Z,24.80
2022-08-16T20:16:36.136Z,24.70
2022-08-16T20:19:04.571Z,24.80
2022-08-16T20:21:31.773Z,24.70
2022-08-16T20:24:22.641Z,24.50
2022-08-16T20:26:45.489Z,24.60
2022-08-16T20:29:12.768Z,24.80
2022-08-16T20:31:39.582Z,24.80
2022-08-16T20:34:06.927Z,24.60
2022-08-16T20:36:34.247Z,24.70
2022-08-16T20:39:04.771Z,24.60
2022-08-16T20:41:32.033Z,24.70
2022-08-16T20:43:58.835Z,24.70
2022-08-16T20:46:26.462Z,24.70
2022-08-16T20:48:53.333Z,24.70
2022-08-16T20:51:20.382Z,24.60
2022-08-16T20:53:47.442Z,24.60
2022-08-16T20:56:14.516Z,24.70
2022-08-16T20:58:41.551Z,24.70
2022-08-16T21:01:08.702Z,24.70
2022-08-16T21:03:37.432Z,24.60
2022-08-16T21:06:05.608Z,24.60
2022-08-16T21:08:52.287Z,24.60
2022-08-16T21:11:21.723Z,24.30
2022-08-16T21:13:48.817Z,24.20
2022-08-16T21:16:16.872Z,24.20
2022-08-16T21:18:43.781Z,24.10
2022-08-16T21:21:12.020Z,24.20
2022-08-16T21:23:39.993Z,24.10
2022-08-16T21:26:10.965Z,23.90
2022-08-16T21:28:43.259Z,24.00
2022-08-16T21:31:12.909Z,24.20
2022-08-16T21:33:40.080Z,24.40
2022-08-16T21:36:07.203Z,24.50
2022-08-16T21:38:33.981Z,24.40
2022-08-16T21:41:02.901Z,24.40
2022-08-16T21:43:33.430Z,24.40
2022-08-16T21:46:02.412Z,24.40
2022-08-16T21:48:34.792Z,24.40
2022-08-16T21:51:12.380Z,24.20
2022-08-16T21:53:39.262Z,24.30
2022-08-16T21:56:06.810Z,24.30
2022-08-16T21:58:37.106Z,24.30
2022-08-16T22:01:04.590Z,24.30
2022-08-16T22:03:32.808Z,24.40
2022-08-16T22:06:13.534Z,24.30
2022-08-16T22:08:48.149Z,24.20
2022-08-16T22:11:19.096Z,24.20
2022-08-16T22:13:52.782Z,24.30
2022-08-16T22:16:26.486Z,24.40
2022-08-16T22:18:53.568Z,24.50
2022-08-16T22:21:20.778Z,24.30
2022-08-16T22:23:57.669Z,23.90
2022-08-16T22:26:29.929Z,23.50
2022-08-16T22:29:01.920Z,23.40
2022-08-16T22:31:29.141Z,23.40
2022-08-16T22:33:57.912Z,23.40
2022-08-16T22:36:28.079Z,23.30
2022-08-16T22:38:58.673Z,23.30
2022-08-16T22:41:27.988Z,23.40
2022-08-16T22:43:55.321Z,23.50
2022-08-16T22:46:22.312Z,23.50
2022-08-16T22:48:50.473Z,23.30
2022-08-16T22:51:19.779Z,23.10
2022-08-16T22:53:47.185Z,23.00
2022-08-16T22:56:15.550Z,23.00
2022-08-16T22:58:42.768Z,23.00
2022-08-16T23:01:10.548Z,22.90
2022-08-16T23:03:38.011Z,22.70
2022-08-16T23:06:05.653Z,22.60
2022-08-16T23:08:38.986Z,22.80
2022-08-16T23:11:12.920Z,23.20
2022-08-16T23:13:52.641Z,23.30
2022-08-16T23:16:25.130Z,23.20
2022-08-16T23:19:00.550Z,23.30
2022-08-16T23:21:27.841Z,23.40
2022-08-16T23:23:54.686Z,23.50
2022-08-16T23:26:47.203Z,23.60
2022-08-16T23:29:22.232Z,23.80
2022-08-16T23:31:56.531Z,23.80
2022-08-16T23:34:24.088Z,23.50
2022-08-16T23:36:51.049Z,23.30
2022-08-16T23:39:17.947Z,23.10
2022-08-16T23:41:44.959Z,23.20
2022-08-16T23:44:55.822Z,23.50
2022-08-16T23:46:58.946Z,23.50
2022-08-16T23:49:57.018Z,23.50
2022-08-16T23:52:12.402Z,23.30
2022-08-16T23:54:39.456Z,23.30
2022-08-16T23:57:06.535Z,23.30
2022-08-16T23:59:35.976Z,23.10
